Flight Track Log - Related Links

Times and Time Zones

All times are in EDT time to prevent confusion due to time zone crossing. See the WES8681 flight status page for this flight to view local times or setup timezone preferences in your user account.

Time Position Orientation Groundspeed Altitude Reporting Facility
EDT Latitude Longitude Course Direction KTS MPH feet Rate Location/Type
Tue 08:10:27 AM 18.1167 -63.0667 212° Southwest 170 196 4,600  Level San Juan Center
Tue 08:11:28 AM 18.0667 -63.1000 212° Southwest 180 207 5,700 1,041 Climbing San Juan Center
Tue 08:12:28 AM 18.0333 -63.1333 224° Southwest 190 219 6,700 1,000 Climbing San Juan Center
Tue 08:13:28 AM 18.0167 -63.1833 251° West 190 219 7,700 992 Climbing San Juan Center
Tue 08:14:29 AM 18.0167 -63.2333 270° West 190 219 8,700 942 Climbing San Juan Center
Tue 08:15:29 AM 18.0000 -63.2833 251° West 190 219 9,600 1,000 Climbing San Juan Center
Tue 08:16:29 AM 17.9833 -63.3500 255° West 180 207 10,700 1,050 Climbing San Juan Center
Tue 08:17:29 AM 17.9833 -63.4000 270° West 180 207 11,700 645 Climbing San Juan Center
Tue 08:18:30 AM 17.9667 -63.4500 251° West 210 242 12,000 149 Climbing San Juan Center
Tue 08:19:30 AM 17.9500 -63.5167 255° West 230 265 12,000  Level San Juan Center
Tue 08:20:30 AM 17.9333 -63.5833 255° West 230 265 12,000  Level San Juan Center
Tue 08:21:31 AM 17.9167 -63.6500 255° West 230 265 12,000  Level San Juan Center
Tue 08:22:31 AM 17.9333 -63.7167 285° West 240 276 12,000  Level San Juan Center
Tue 08:23:31 AM 17.9500 -63.7833 285° West 230 265 12,000 -50 Level San Juan Center
Tue 08:24:32 AM 17.9667 -63.8500 285° West 230 265 11,900 -50 Descending San Juan Center
Tue 08:25:32 AM 17.9833 -63.9167 285° West 240 276 11,900  Level San Juan Center
Tue 08:26:32 AM 18.0000 -64.0000 282° West 240 276 11,900  Level San Juan Center
Tue 08:27:32 AM 18.0167 -64.0500 289° West 230 265 11,900 -50 Level San Juan Center
Tue 08:28:33 AM 18.0333 -64.1167 285° West 240 276 11,800 -248 Descending San Juan Center
Tue 08:29:33 AM 18.0500 -64.2000 282° West 250 288 11,400 -350 Descending San Juan Center
Tue 08:30:33 AM 18.0667 -64.2667 285° West 250 288 11,100 -397 Descending San Juan Center
Tue 08:31:34 AM 18.0667 -64.3333 270° West 250 288 10,600 -347 Descending San Juan Center
Tue 08:32:34 AM 18.0833 -64.4167 282° West 250 288 10,400 -300 Descending San Juan Center
Tue 08:33:34 AM 18.1000 -64.4833 285° West 250 288 10,000 -198 Descending San Juan Center
Tue 08:34:35 AM 18.1167 -64.5500 285° West 240 276 10,000  Level San Juan Center
Tue 08:35:35 AM 18.1333 -64.6167 285° West 230 265 10,000  Level San Juan Center
Tue 08:36:35 AM 18.1500 -64.6833 285° West 230 265 10,000  Level San Juan Center
Tue 08:37:36 AM 18.1667 -64.7500 285° West 230 265 10,000  Level San Juan Center
Tue 08:38:36 AM 18.1833 -64.8167 285° West 230 265 10,000  Level San Juan Center
Tue 08:39:36 AM 18.2000 -64.8833 285° West 230 265 10,000  Level San Juan Center
Tue 08:40:37 AM 18.2167 -64.9500 285° West 230 265 10,000  Level San Juan Center
Tue 08:41:37 AM 18.2167 -65.0167 270° West 240 276 10,000  Level San Juan Center
Tue 08:42:37 AM 18.2333 -65.0833 285° West 240 276 10,000  Level San Juan Center
Tue 08:43:38 AM 18.2500 -65.1500 285° West 240 276 10,000  Level San Juan Center
Tue 08:44:38 AM 18.2667 -65.2167 285° West 240 276 10,000 -100 Level San Juan Center
Tue 08:45:38 AM 18.2833 -65.2833 285° West 230 265 9,800 -397 Descending San Juan Center
Tue 08:46:39 AM 18.3000 -65.3667 282° West 250 288 9,200 -446 Descending San Juan Center
Tue 08:47:39 AM 18.3167 -65.4333 285° West 250 288 8,900 -500 Descending San Juan Center
Tue 08:48:39 AM 18.3333 -65.5000 285° West 260 299 8,200 -500 Descending San Juan Center
Tue 08:49:39 AM 18.3500 -65.5667 285° West 250 288 7,900 -548 Descending San Juan Center
Tue 08:52:40 AM 18.3500 -65.7833 270° West 250 288 6,000 -473 Descending San Juan Center
Tue 08:53:40 AM 18.3500 -65.8500 270° West 230 265 6,000  Level San Juan Center
Tue 08:54:41 AM 18.3833 -65.9000 305° West 220 253 6,000  Level San Juan Center
Tue 08:55:41 AM 18.4333 -65.9500 317° Northwest 220 253 6,000  Level San Juan Center
Tue 08:56:41 AM 18.4667 -65.9833 317° Northwest 200 230 6,000  Level San Juan Center
Tue 08:57:42 AM 18.5000 -66.0500 298° West 210 242 6,000 -99 Level San Juan Center
Tue 08:58:42 AM 18.5333 -66.1000 305° West 210 242 5,800 -700 Descending San Juan Center
Tue 08:59:42 AM 18.5167 -66.1667 255° West 200 230 4,600 -1,041 Descending San Juan Center
Tue 09:00:43 AM 18.4833 -66.1833 205° Southwest 170 196 3,700 -1,041 Descending San Juan Center
Tue 09:01:43 AM 18.4500 -66.1667 155° Southeast 150 173 2,500 -650 Descending San Juan Center
Tue 09:02:43 AM 18.4333 -66.1333 118° Southeast 140 161 2,400 -545 Descending San Juan Center
Tue 09:03:44 AM 18.4167 -66.0833 109° East 140 161 1,400 -793 Descending San Juan Center
Tue 09:04:44 AM 18.4167 -66.0500 90° East 130 150 800 -500 Descending San Juan Center
Tue 09:05:44 AM 18.4333 -66.0167 62° Northeast 100 115 400 -400 Descending San Juan Center

Login

Don't have an account? Register now (free) for customized features, flight alerts, and more!